This is the latest recevied weather packets stored in our database for station/object DH8TOM-4. If no packets are shown the sender has not sent any weather packets the latest 10 day(s).
| Time | Temp. | Humidity | Pressure | Rain* | Wind** | Luminosity | Snow |
|---|---|---|---|---|---|---|---|
| 1787647282 | 20.56° C | 65% | 1014.6 hPa | - | - | - | - |
| 1787646981 | 20° C | 63% | 1014.6 hPa | - | - | - | - |
| 1787646681 | 20° C | 63% | 1014.6 hPa | - | - | - | - |
| 1787646380 | 20° C | 63% | 1014.6 hPa | - | - | - | - |
| 1787646078 | 21.11° C | 60% | 1014.7 hPa | - | - | - | - |
| 1787645777 | 21.11° C | 60% | 1014.7 hPa | - | - | - | - |
| 1787645477 | 21.67° C | 58% | 1014.6 hPa | - | - | - | - |
| 1787645175 | 22.78° C | 61% | 1014.6 hPa | - | - | - | - |
| 1787644874 | 22.78° C | 61% | 1014.6 hPa | - | - | - | - |
| 1787644574 | 22.78° C | 61% | 1014.6 hPa | - | - | - | - |
| 1787644272 | 21.11° C | 63% | 1014.6 hPa | - | - | - | - |
| 1787643971 | 21.11° C | 63% | 1014.6 hPa | - | - | - | - |
| 1787643671 | 19.44° C | 69% | 1014.7 hPa | - | - | - | - |
| 1787643369 | 19.44° C | 69% | 1014.7 hPa | - | - | - | - |
| 1787643069 | 18.33° C | 71% | 1014.8 hPa | - | - | - | - |
| 1787642767 | 17.78° C | 72% | 1014.7 hPa | - | - | - | - |
| 1787642467 | 17.78° C | 72% | 1014.7 hPa | - | - | - | - |
| 1787642166 | 17.78° C | 72% | 1014.7 hPa | - | - | - | - |
| 1787641864 | 17.22° C | 73% | 1014.5 hPa | - | - | - | - |
| 1787641563 | 17.22° C | 73% | 1014.5 hPa | - | - | - | - |
| 1787641263 | 16.11° C | 75% | 1014.5 hPa | - | - | - | - |
| 1787640961 | 16.11° C | 75% | 1014.5 hPa | - | - | - | - |
| 1787640661 | 16.11° C | 75% | 1014.6 hPa | - | - | - | - |
| 1787640359 | 15.56° C | 76% | 1014.5 hPa | - | - | - | - |
| 1787640058 | 15.56° C | 76% | 1014.5 hPa | - | - | - | - |
* Rain since midnight (hover to see other rain measurements)
** Current wind speed in m/s (hover to see current wind gust speed)